createdAt,value
2023-06-04T00:00:02.317Z,98129.00
2023-06-04T00:02:30.066Z,98133.00
2023-06-04T00:04:58.455Z,98123.00
2023-06-04T00:07:26.171Z,98126.00
2023-06-04T00:09:55.750Z,98123.00
2023-06-04T00:12:23.489Z,98114.00
2023-06-04T00:14:51.233Z,98114.00
2023-06-04T00:17:18.957Z,98110.00
2023-06-04T00:19:46.718Z,98105.00
2023-06-04T00:22:14.488Z,98107.00
2023-06-04T00:24:42.363Z,98103.00
2023-06-04T00:27:11.485Z,98109.00
2023-06-04T00:29:39.210Z,98108.00
2023-06-04T00:32:07.880Z,98106.00
2023-06-04T00:34:35.823Z,98113.00
2023-06-04T00:37:03.615Z,98113.00
2023-06-04T00:39:31.433Z,98105.00
2023-06-04T00:41:59.146Z,98112.00
2023-06-04T00:44:28.337Z,98113.00
2023-06-04T00:46:56.110Z,98111.00
2023-06-04T00:49:23.876Z,98107.00
2023-06-04T00:51:52.497Z,98112.00
2023-06-04T00:54:21.612Z,98114.00
2023-06-04T00:56:49.938Z,98112.00
2023-06-04T00:59:18.649Z,98120.00
2023-06-04T01:01:53.487Z,98106.00
2023-06-04T01:04:28.016Z,98108.00
2023-06-04T01:06:59.927Z,98111.00
2023-06-04T01:09:28.471Z,98103.00
2023-06-04T01:11:58.560Z,98108.00
2023-06-04T01:14:27.040Z,98111.00
2023-06-04T01:17:03.996Z,98110.00
2023-06-04T01:20:01.656Z,98112.00
2023-06-04T01:22:37.270Z,98109.00
2023-06-04T01:25:07.512Z,98111.00
2023-06-04T01:27:36.894Z,98115.00
2023-06-04T01:30:06.083Z,98115.00
2023-06-04T01:32:35.966Z,98115.00
2023-06-04T01:35:03.672Z,98109.00
2023-06-04T01:37:31.356Z,98110.00
2023-06-04T01:39:59.067Z,98116.00
2023-06-04T01:42:26.779Z,98117.00
2023-06-04T01:44:54.524Z,98120.00
2023-06-04T01:47:22.262Z,98125.00
2023-06-04T01:49:51.382Z,98114.00
2023-06-04T01:52:19.104Z,98111.00
2023-06-04T01:54:46.989Z,98116.00
2023-06-04T01:57:14.720Z,98121.00
2023-06-04T01:59:43.228Z,98117.00
2023-06-04T02:02:11.030Z,98127.00
2023-06-04T02:04:42.344Z,98130.00
2023-06-04T02:07:11.833Z,98126.00
2023-06-04T02:09:39.534Z,98130.00
2023-06-04T02:12:08.499Z,98133.00
2023-06-04T02:14:36.343Z,98129.00
2023-06-04T02:17:05.654Z,98136.00
2023-06-04T02:19:34.973Z,98136.00
2023-06-04T02:22:02.927Z,98139.00
2023-06-04T02:24:32.035Z,98138.00
2023-06-04T02:26:59.808Z,98139.00
2023-06-04T02:29:27.699Z,98139.00
2023-06-04T02:31:55.473Z,98146.00
2023-06-04T02:34:24.452Z,98140.00
2023-06-04T02:36:52.237Z,98142.00
2023-06-04T02:39:20.223Z,98140.00
2023-06-04T02:41:49.269Z,98138.00
2023-06-04T02:44:17.017Z,98139.00
2023-06-04T02:46:45.674Z,98140.00
2023-06-04T02:49:14.762Z,98132.00
2023-06-04T02:51:42.648Z,98137.00
2023-06-04T02:54:10.626Z,98139.00
2023-06-04T02:56:39.119Z,98145.00
2023-06-04T02:59:12.120Z,98138.00
2023-06-04T03:01:42.330Z,98139.00
2023-06-04T03:04:11.281Z,98149.00
2023-06-04T03:06:39.992Z,98145.00
2023-06-04T03:09:08.215Z,98146.00
2023-06-04T03:11:36.078Z,98141.00
2023-06-04T03:14:03.803Z,98139.00
2023-06-04T03:16:33.009Z,98146.00
2023-06-04T03:19:00.903Z,98142.00
2023-06-04T03:21:53.257Z,98145.00
2023-06-04T03:24:21.064Z,98148.00
2023-06-04T03:26:48.786Z,98146.00
2023-06-04T03:29:16.517Z,98153.00
2023-06-04T03:31:47.596Z,98153.00
2023-06-04T03:34:15.321Z,98156.00
2023-06-04T03:36:43.324Z,98162.00
2023-06-04T03:39:11.187Z,98155.00
2023-06-04T03:41:38.912Z,98157.00
2023-06-04T03:44:06.614Z,98157.00
2023-06-04T03:46:34.782Z,98158.00
2023-06-04T03:49:04.632Z,98163.00
2023-06-04T03:51:33.958Z,98161.00
2023-06-04T03:54:01.721Z,98165.00
2023-06-04T03:56:29.489Z,98163.00
2023-06-04T03:58:57.237Z,98166.00
2023-06-04T04:01:25.479Z,98165.00
2023-06-04T04:03:53.783Z,98165.00
2023-06-04T04:06:23.371Z,98162.00
2023-06-04T04:08:51.097Z,98162.00
2023-06-04T04:11:19.128Z,98167.00
2023-06-04T04:13:47.696Z,98173.00
2023-06-04T04:16:15.780Z,98167.00
2023-06-04T04:18:44.759Z,98172.00
2023-06-04T04:21:12.670Z,98164.00
2023-06-04T04:23:42.222Z,98165.00
2023-06-04T04:26:11.085Z,98167.00
2023-06-04T04:28:39.404Z,98166.00
2023-06-04T04:31:07.820Z,98166.00
2023-06-04T04:33:40.409Z,98169.00
2023-06-04T04:36:13.619Z,98176.00
2023-06-04T04:38:42.805Z,98174.00
2023-06-04T04:41:10.556Z,98179.00
2023-06-04T04:43:40.433Z,98178.00
2023-06-04T04:46:08.790Z,98168.00
2023-06-04T04:48:36.643Z,98166.00
2023-06-04T04:51:04.656Z,98175.00
2023-06-04T04:53:32.437Z,98181.00
2023-06-04T04:56:01.548Z,98177.00
2023-06-04T04:58:29.298Z,98180.00
2023-06-04T05:00:57.048Z,98189.00
2023-06-04T05:03:24.758Z,98184.00
2023-06-04T05:05:52.491Z,98192.00
2023-06-04T05:08:20.235Z,98193.00
2023-06-04T05:10:47.980Z,98190.00
2023-06-04T05:13:17.624Z,98196.00
2023-06-04T05:15:45.408Z,98199.00
2023-06-04T05:18:13.165Z,98199.00
2023-06-04T05:20:40.949Z,98202.00
2023-06-04T05:23:08.675Z,98199.00
2023-06-04T05:25:36.522Z,98210.00
2023-06-04T05:28:04.390Z,98210.00
2023-06-04T05:30:34.773Z,98207.00
2023-06-04T05:33:02.548Z,98206.00
2023-06-04T05:35:30.373Z,98210.00
2023-06-04T05:37:58.150Z,98212.00
2023-06-04T05:40:26.040Z,98219.00
2023-06-04T05:42:53.801Z,98216.00
2023-06-04T05:45:21.528Z,98230.00
2023-06-04T05:47:50.701Z,98220.00
2023-06-04T05:50:18.525Z,98224.00
2023-06-04T05:52:46.460Z,98223.00
2023-06-04T05:55:15.410Z,98215.00
2023-06-04T05:57:43.172Z,98228.00
2023-06-04T06:00:12.067Z,98216.00
2023-06-04T06:02:40.096Z,98224.00
2023-06-04T06:05:10.239Z,98218.00
2023-06-04T06:07:38.093Z,98218.00
2023-06-04T06:10:06.957Z,98216.00
2023-06-04T06:12:34.780Z,98220.00
2023-06-04T06:15:02.522Z,98226.00
2023-06-04T06:17:30.604Z,98226.00
2023-06-04T06:19:58.449Z,98228.00
2023-06-04T06:22:28.423Z,98227.00
2023-06-04T06:24:56.192Z,98228.00
2023-06-04T06:27:23.900Z,98228.00
2023-06-04T06:29:51.624Z,98229.00
2023-06-04T06:32:19.418Z,98234.00
2023-06-04T06:34:47.180Z,98230.00
2023-06-04T06:37:14.919Z,98228.00
2023-06-04T06:39:44.035Z,98231.00
2023-06-04T06:42:11.867Z,98232.00
2023-06-04T06:44:39.572Z,98239.00
2023-06-04T06:47:07.483Z,98236.00
2023-06-04T06:49:35.361Z,98241.00
2023-06-04T06:52:03.095Z,98240.00
2023-06-04T06:54:30.895Z,98245.00
2023-06-04T06:57:00.055Z,98237.00
2023-06-04T06:59:27.820Z,98250.00
2023-06-04T07:01:55.662Z,98251.00
2023-06-04T07:04:23.464Z,98252.00
2023-06-04T07:06:51.192Z,98239.00
2023-06-04T07:09:18.992Z,98239.00
2023-06-04T07:11:46.927Z,98248.00
2023-06-04T07:14:16.157Z,98253.00
2023-06-04T07:16:43.922Z,98245.00
2023-06-04T07:19:11.769Z,98240.00
2023-06-04T07:21:39.504Z,98246.00
2023-06-04T07:24:07.958Z,98249.00
2023-06-04T07:26:35.858Z,98248.00
2023-06-04T07:29:03.668Z,98244.00
2023-06-04T07:31:32.816Z,98239.00
2023-06-04T07:34:00.794Z,98247.00
2023-06-04T07:36:28.544Z,98251.00
2023-06-04T07:38:56.328Z,98245.00
2023-06-04T07:41:24.068Z,98244.00
2023-06-04T07:43:51.803Z,98246.00
2023-06-04T07:46:20.485Z,98246.00
2023-06-04T07:48:49.626Z,98245.00
2023-06-04T07:51:17.363Z,98242.00
2023-06-04T07:53:46.090Z,98243.00
2023-06-04T07:56:13.857Z,98243.00
2023-06-04T07:58:41.782Z,98232.00
2023-06-04T08:01:10.202Z,98241.00
2023-06-04T08:03:38.466Z,98229.00
2023-06-04T08:06:08.341Z,98236.00
2023-06-04T08:08:36.059Z,98241.00
2023-06-04T08:11:03.994Z,98239.00
2023-06-04T08:13:31.787Z,98235.00
2023-06-04T08:15:59.529Z,98235.00
2023-06-04T08:18:27.327Z,98235.00
2023-06-04T08:20:55.067Z,98240.00
2023-06-04T08:23:24.155Z,98235.00
2023-06-04T08:25:52.086Z,98241.00
2023-06-04T08:28:20.265Z,98233.00
2023-06-04T08:30:48.009Z,98230.00
2023-06-04T08:33:15.965Z,98240.00
2023-06-04T08:35:43.774Z,98236.00
2023-06-04T08:38:11.539Z,98241.00
2023-06-04T08:40:40.692Z,98231.00
2023-06-04T08:43:09.101Z,98241.00
2023-06-04T08:45:41.143Z,98235.00
2023-06-04T08:48:12.782Z,98232.00
2023-06-04T08:50:44.373Z,98233.00
2023-06-04T08:53:15.740Z,98232.00
2023-06-04T08:55:44.970Z,98232.00
2023-06-04T08:58:14.021Z,98231.00
2023-06-04T09:00:41.848Z,98230.00
2023-06-04T09:03:11.651Z,98230.00
2023-06-04T09:05:43.338Z,98224.00
2023-06-04T09:08:14.098Z,98230.00
2023-06-04T09:10:42.848Z,98230.00
2023-06-04T09:13:12.421Z,98240.00
2023-06-04T09:16:02.203Z,98236.00
2023-06-04T09:18:30.491Z,98240.00
2023-06-04T09:21:06.797Z,98240.00
2023-06-04T09:23:36.976Z,98235.00
2023-06-04T09:26:11.479Z,98232.00
2023-06-04T09:28:43.275Z,98241.00
2023-06-04T09:31:11.937Z,98233.00
2023-06-04T09:33:50.835Z,98220.00
2023-06-04T09:36:19.375Z,98234.00
2023-06-04T09:38:48.065Z,98230.00
2023-06-04T09:41:16.382Z,98231.00
2023-06-04T09:43:45.801Z,98229.00
2023-06-04T09:46:14.578Z,98228.00
2023-06-04T09:49:26.326Z,98225.00
2023-06-04T09:51:54.637Z,98228.00
2023-06-04T09:54:22.391Z,98233.00
2023-06-04T09:56:50.167Z,98226.00
2023-06-04T09:59:19.656Z,98230.00
2023-06-04T10:01:48.176Z,98221.00
2023-06-04T10:04:17.899Z,98226.00
2023-06-04T10:06:46.049Z,98222.00
2023-06-04T10:09:15.637Z,98219.00
2023-06-04T10:11:49.059Z,98218.00
2023-06-04T10:14:23.841Z,98215.00
2023-06-04T10:16:53.325Z,98215.00
2023-06-04T10:19:21.835Z,98215.00
2023-06-04T10:21:49.960Z,98210.00
2023-06-04T10:24:18.081Z,98217.00
2023-06-04T10:26:45.917Z,98204.00
2023-06-04T10:29:15.962Z,98202.00
2023-06-04T10:31:46.170Z,98205.00
2023-06-04T10:34:14.257Z,98205.00
2023-06-04T10:36:46.225Z,98199.00
2023-06-04T10:39:14.607Z,98209.00
2023-06-04T10:41:42.497Z,98211.00
2023-06-04T10:44:10.286Z,98207.00
2023-06-04T10:46:43.842Z,98202.00
2023-06-04T10:49:13.634Z,98201.00
2023-06-04T10:51:42.010Z,98201.00
2023-06-04T10:54:09.799Z,98200.00
2023-06-04T10:56:38.216Z,98196.00
2023-06-04T10:59:16.388Z,98193.00
2023-06-04T11:01:44.452Z,98201.00
2023-06-04T11:04:22.814Z,98200.00
2023-06-04T11:07:02.998Z,98196.00
2023-06-04T11:09:32.187Z,98205.00
2023-06-04T11:12:01.234Z,98200.00
2023-06-04T11:14:29.035Z,98202.00
2023-06-04T11:16:56.741Z,98205.00
2023-06-04T11:19:25.906Z,98188.00
2023-06-04T11:21:53.661Z,98193.00
2023-06-04T11:24:21.494Z,98186.00
2023-06-04T11:27:00.193Z,98180.00
2023-06-04T11:29:35.035Z,98185.00
2023-06-04T11:32:02.752Z,98182.00
2023-06-04T11:34:33.021Z,98176.00
2023-06-04T11:37:10.661Z,98177.00
2023-06-04T11:39:40.609Z,98178.00
2023-06-04T11:42:10.560Z,98175.00
2023-06-04T11:44:38.565Z,98169.00
2023-06-04T11:47:08.436Z,98170.00
2023-06-04T11:49:40.877Z,98170.00
2023-06-04T11:52:09.913Z,98163.00
2023-06-04T11:54:39.690Z,98168.00
2023-06-04T11:57:07.834Z,98170.00
2023-06-04T11:59:36.511Z,98162.00
2023-06-04T12:02:05.225Z,98173.00
2023-06-04T12:04:33.219Z,98158.00
2023-06-04T12:07:03.621Z,98166.00
2023-06-04T12:09:34.066Z,98154.00
2023-06-04T12:12:02.701Z,98161.00
2023-06-04T12:14:31.155Z,98151.00
2023-06-04T12:16:59.435Z,98151.00
2023-06-04T12:19:27.507Z,98156.00
2023-06-04T12:22:04.678Z,98156.00
2023-06-04T12:24:35.409Z,98161.00
2023-06-04T12:27:05.232Z,98159.00
2023-06-04T12:29:33.246Z,98160.00
2023-06-04T12:32:05.923Z,98154.00
2023-06-04T12:34:33.825Z,98157.00
2023-06-04T12:37:04.266Z,98155.00
2023-06-04T12:39:53.915Z,98136.00
2023-06-04T12:42:22.035Z,98142.00
2023-06-04T12:44:49.965Z,98147.00
2023-06-04T12:47:18.228Z,98142.00
2023-06-04T12:49:46.352Z,98145.00
2023-06-04T12:52:16.119Z,98139.00
2023-06-04T12:54:44.189Z,98143.00
2023-06-04T12:57:12.119Z,98145.00
2023-06-04T12:59:40.607Z,98143.00
2023-06-04T13:02:08.990Z,98146.00
2023-06-04T13:04:36.742Z,98139.00
2023-06-04T13:07:04.542Z,98137.00
2023-06-04T13:09:36.058Z,98135.00
2023-06-04T13:12:04.789Z,98137.00
2023-06-04T13:14:34.167Z,98132.00
2023-06-04T13:17:14.138Z,98136.00
2023-06-04T13:19:48.887Z,98131.00
2023-06-04T13:22:16.612Z,98128.00
2023-06-04T13:24:45.721Z,98128.00
2023-06-04T13:27:13.470Z,98129.00
2023-06-04T13:29:42.587Z,98138.00
2023-06-04T13:32:12.698Z,98129.00
2023-06-04T13:34:40.585Z,98125.00
2023-06-04T13:37:10.878Z,98121.00
2023-06-04T13:39:38.645Z,98128.00
2023-06-04T13:42:08.379Z,98122.00
2023-06-04T13:44:36.369Z,98115.00
2023-06-04T13:47:05.182Z,98118.00
2023-06-04T13:49:35.200Z,98122.00
2023-06-04T13:52:03.194Z,98126.00
2023-06-04T13:54:30.984Z,98122.00
2023-06-04T13:56:58.731Z,98112.00
2023-06-04T13:59:27.825Z,98113.00
2023-06-04T14:01:55.691Z,98111.00
2023-06-04T14:04:23.533Z,98104.00
2023-06-04T14:06:51.290Z,98100.00
2023-06-04T14:09:19.045Z,98108.00
2023-06-04T14:11:50.732Z,98112.00
2023-06-04T14:14:19.383Z,98099.00
2023-06-04T14:16:49.072Z,98105.00
2023-06-04T14:19:17.466Z,98104.00
2023-06-04T14:21:45.548Z,98102.00
2023-06-04T14:24:13.449Z,98103.00
2023-06-04T14:26:41.383Z,98098.00
2023-06-04T14:29:09.192Z,98101.00
2023-06-04T14:31:36.994Z,98094.00
2023-06-04T14:34:08.171Z,98094.00
2023-06-04T14:36:35.959Z,98099.00
2023-06-04T14:39:03.762Z,98094.00
2023-06-04T14:41:31.556Z,98085.00
2023-06-04T14:43:59.406Z,98089.00
2023-06-04T14:46:27.761Z,98094.00
2023-06-04T14:48:55.547Z,98089.00
2023-06-04T14:51:24.698Z,98093.00
2023-06-04T14:53:52.421Z,98095.00
2023-06-04T14:56:20.220Z,98086.00
2023-06-04T14:58:47.943Z,98085.00
2023-06-04T15:01:17.397Z,98092.00
2023-06-04T15:03:45.340Z,98091.00
2023-06-04T15:06:19.259Z,98078.00
2023-06-04T15:08:49.320Z,98082.00
2023-06-04T15:11:17.555Z,98081.00
2023-06-04T15:13:45.345Z,98082.00
2023-06-04T15:16:13.250Z,98079.00
2023-06-04T15:18:41.247Z,98087.00
2023-06-04T15:21:09.539Z,98080.00
2023-06-04T15:23:38.196Z,98081.00
2023-06-04T15:26:07.411Z,98076.00
2023-06-04T15:28:35.142Z,98079.00
2023-06-04T15:31:02.915Z,98081.00
2023-06-04T15:33:30.781Z,98086.00
2023-06-04T15:35:58.606Z,98083.00
2023-06-04T15:38:26.426Z,98085.00
2023-06-04T15:40:54.249Z,98084.00
2023-06-04T15:43:23.342Z,98076.00
2023-06-04T15:45:51.180Z,98082.00
2023-06-04T15:48:19.547Z,98074.00
2023-06-04T15:50:47.381Z,98074.00
2023-06-04T15:53:16.363Z,98075.00
2023-06-04T15:55:44.273Z,98069.00
2023-06-04T15:58:12.062Z,98065.00
2023-06-04T16:00:41.148Z,98068.00
2023-06-04T16:03:08.944Z,98061.00
2023-06-04T16:05:36.793Z,98060.00
2023-06-04T16:08:04.724Z,98051.00
2023-06-04T16:10:32.911Z,98055.00
2023-06-04T16:13:00.715Z,98049.00
2023-06-04T16:15:28.482Z,98055.00
2023-06-04T16:17:57.831Z,98054.00
2023-06-04T16:20:25.796Z,98051.00
2023-06-04T16:22:53.554Z,98051.00
2023-06-04T16:25:21.303Z,98049.00
2023-06-04T16:27:49.217Z,98049.00
2023-06-04T16:30:18.072Z,98044.00
2023-06-04T16:32:45.894Z,98042.00
2023-06-04T16:35:15.207Z,98038.00
2023-06-04T16:37:43.046Z,98040.00
2023-06-04T16:40:12.040Z,98045.00
2023-06-04T16:42:39.852Z,98041.00
2023-06-04T16:45:09.199Z,98031.00
2023-06-04T16:47:37.660Z,98039.00
2023-06-04T16:50:06.459Z,98037.00
2023-06-04T16:52:35.552Z,98038.00
2023-06-04T16:55:03.351Z,98036.00
2023-06-04T16:57:31.132Z,98043.00
2023-06-04T17:00:02.541Z,98044.00
2023-06-04T17:02:34.964Z,98039.00
2023-06-04T17:05:12.680Z,98045.00
2023-06-04T17:07:49.525Z,98043.00
2023-06-04T17:10:17.868Z,98040.00
2023-06-04T17:12:45.637Z,98049.00
2023-06-04T17:15:13.490Z,98042.00
2023-06-04T17:17:41.262Z,98042.00
2023-06-04T17:20:09.764Z,98042.00
2023-06-04T17:22:39.098Z,98039.00
2023-06-04T17:25:10.152Z,98042.00
2023-06-04T17:27:37.909Z,98045.00
2023-06-04T17:30:07.034Z,98048.00
2023-06-04T17:32:34.754Z,98048.00
2023-06-04T17:35:02.510Z,98050.00
2023-06-04T17:37:30.417Z,98052.00
2023-06-04T17:39:58.196Z,98055.00
2023-06-04T17:42:27.346Z,98049.00
2023-06-04T17:44:55.064Z,98051.00
2023-06-04T17:47:22.809Z,98048.00
2023-06-04T17:49:50.928Z,98049.00
2023-06-04T17:52:18.646Z,98048.00
2023-06-04T17:54:46.904Z,98058.00
2023-06-04T17:57:14.872Z,98050.00
2023-06-04T17:59:43.958Z,98056.00
2023-06-04T18:02:11.748Z,98053.00
2023-06-04T18:04:39.484Z,98055.00
2023-06-04T18:07:07.228Z,98059.00
2023-06-04T18:09:35.005Z,98056.00
2023-06-04T18:12:02.757Z,98064.00
2023-06-04T18:14:30.494Z,98062.00
2023-06-04T18:16:59.550Z,98063.00
2023-06-04T18:19:27.299Z,98069.00
2023-06-04T18:21:55.081Z,98071.00
2023-06-04T18:24:23.240Z,98072.00
2023-06-04T18:26:51.240Z,98077.00
2023-06-04T18:29:18.936Z,98079.00
2023-06-04T18:31:46.748Z,98078.00
2023-06-04T18:34:21.297Z,98081.00
2023-06-04T18:36:49.417Z,98075.00
2023-06-04T18:39:17.324Z,98083.00
2023-06-04T18:41:45.050Z,98077.00
2023-06-04T18:44:12.788Z,98079.00
2023-06-04T18:46:40.609Z,98082.00
2023-06-04T18:49:08.754Z,98083.00
2023-06-04T18:51:38.273Z,98083.00
2023-06-04T18:54:06.181Z,98076.00
2023-06-04T18:56:33.981Z,98078.00
2023-06-04T18:59:01.720Z,98081.00
2023-06-04T19:01:29.510Z,98077.00
2023-06-04T19:03:57.342Z,98076.00
2023-06-04T19:06:25.428Z,98083.00
2023-06-04T19:08:54.537Z,98080.00
2023-06-04T19:11:23.041Z,98088.00
2023-06-04T19:13:51.054Z,98082.00
2023-06-04T19:16:18.885Z,98086.00
2023-06-04T19:18:46.701Z,98092.00
2023-06-04T19:21:14.917Z,98087.00
2023-06-04T19:23:42.734Z,98096.00
2023-06-04T19:26:12.270Z,98090.00
2023-06-04T19:28:40.140Z,98100.00
2023-06-04T19:31:08.803Z,98108.00
2023-06-04T19:33:37.450Z,98102.00
2023-06-04T19:36:05.858Z,98108.00
2023-06-04T19:38:33.825Z,98108.00
2023-06-04T19:41:02.289Z,98107.00
2023-06-04T19:43:31.409Z,98114.00
2023-06-04T19:46:02.730Z,98113.00
2023-06-04T19:48:30.529Z,98115.00
2023-06-04T19:50:58.537Z,98114.00
2023-06-04T19:53:26.318Z,98112.00
2023-06-04T19:55:54.038Z,98120.00
2023-06-04T19:58:21.830Z,98123.00
2023-06-04T20:00:52.317Z,98120.00
2023-06-04T20:03:20.208Z,98120.00
2023-06-04T20:05:47.947Z,98121.00
2023-06-04T20:08:16.540Z,98124.00
2023-06-04T20:10:44.546Z,98120.00
2023-06-04T20:13:12.292Z,98118.00
2023-06-04T20:15:40.083Z,98119.00
2023-06-04T20:18:09.215Z,98130.00
2023-06-04T20:20:37.179Z,98124.00
2023-06-04T20:23:04.880Z,98131.00
2023-06-04T20:25:32.870Z,98135.00
2023-06-04T20:28:00.843Z,98138.00
2023-06-04T20:30:28.872Z,98145.00
2023-06-04T20:32:56.673Z,98138.00
2023-06-04T20:35:26.040Z,98149.00
2023-06-04T20:37:54.971Z,98144.00
2023-06-04T20:40:23.191Z,98151.00
2023-06-04T20:42:51.438Z,98152.00
2023-06-04T20:45:19.257Z,98153.00
2023-06-04T20:47:47.216Z,98158.00
2023-06-04T20:50:14.959Z,98154.00
2023-06-04T20:52:44.105Z,98157.00
2023-06-04T20:55:12.860Z,98156.00
2023-06-04T20:57:40.702Z,98156.00
2023-06-04T21:00:10.324Z,98156.00
2023-06-04T21:02:38.141Z,98160.00
2023-06-04T21:05:06.680Z,98168.00
2023-06-04T21:07:34.407Z,98171.00
2023-06-04T21:10:03.592Z,98170.00
2023-06-04T21:12:31.312Z,98176.00
2023-06-04T21:14:59.046Z,98183.00
2023-06-04T21:17:26.888Z,98171.00
2023-06-04T21:19:54.621Z,98176.00
2023-06-04T21:22:22.527Z,98181.00
2023-06-04T21:24:50.238Z,98179.00
2023-06-04T21:27:19.328Z,98178.00
2023-06-04T21:29:47.070Z,98182.00
2023-06-04T21:32:14.923Z,98186.00
2023-06-04T21:34:42.684Z,98188.00
2023-06-04T21:37:10.627Z,98188.00
2023-06-04T21:39:38.556Z,98184.00
2023-06-04T21:42:06.709Z,98187.00
2023-06-04T21:44:36.325Z,98190.00
2023-06-04T21:47:04.404Z,98187.00
2023-06-04T21:49:32.124Z,98199.00
2023-06-04T21:52:03.397Z,98195.00
2023-06-04T21:54:35.484Z,98185.00
2023-06-04T21:57:03.196Z,98188.00
2023-06-04T21:59:31.071Z,98188.00
2023-06-04T22:02:00.178Z,98189.00
2023-06-04T22:04:27.963Z,98186.00
2023-06-04T22:06:55.775Z,98188.00
2023-06-04T22:09:23.536Z,98186.00
2023-06-04T22:11:51.371Z,98185.00
2023-06-04T22:14:19.189Z,98183.00
2023-06-04T22:16:46.884Z,98188.00
2023-06-04T22:19:15.952Z,98188.00
2023-06-04T22:21:43.666Z,98179.00
2023-06-04T22:24:11.395Z,98180.00
2023-06-04T22:26:39.254Z,98181.00
2023-06-04T22:29:07.318Z,98185.00
2023-06-04T22:31:35.169Z,98178.00
2023-06-04T22:34:02.927Z,98179.00
2023-06-04T22:36:32.041Z,98183.00
2023-06-04T22:38:59.819Z,98177.00
2023-06-04T22:41:28.104Z,98175.00
2023-06-04T22:43:55.876Z,98182.00
2023-06-04T22:46:23.750Z,98172.00
2023-06-04T22:48:51.458Z,98169.00
2023-06-04T22:51:19.659Z,98178.00
2023-06-04T22:53:48.996Z,98180.00
2023-06-04T22:56:16.766Z,98178.00
2023-06-04T22:58:44.477Z,98172.00
2023-06-04T23:01:12.204Z,98176.00
2023-06-04T23:03:40.017Z,98179.00
2023-06-04T23:06:08.001Z,98173.00
2023-06-04T23:08:35.823Z,98177.00
2023-06-04T23:11:04.909Z,98160.00
2023-06-04T23:13:32.657Z,98169.00
2023-06-04T23:16:00.387Z,98164.00
2023-06-04T23:18:28.248Z,98170.00
2023-06-04T23:20:55.945Z,98164.00
2023-06-04T23:23:24.258Z,98162.00
2023-06-04T23:25:52.004Z,98168.00
2023-06-04T23:28:21.524Z,98162.00
2023-06-04T23:30:49.706Z,98165.00
2023-06-04T23:33:17.429Z,98165.00
2023-06-04T23:35:45.468Z,98159.00
2023-06-04T23:38:13.268Z,98166.00
2023-06-04T23:40:41.184Z,98149.00
2023-06-04T23:43:08.889Z,98159.00
2023-06-04T23:45:37.962Z,98155.00
2023-06-04T23:48:05.763Z,98160.00
2023-06-04T23:50:33.580Z,98155.00
2023-06-04T23:53:01.354Z,98156.00
2023-06-04T23:55:29.073Z,98157.00
2023-06-04T23:57:57.739Z,98160.00
